Time;durP1;ratioP1;P1;durP2;ratioP2;P2;SDS_P1;SDS_P2;PMS_P1;PMS_P2;Temp;Humidity;BMP_temperature;BMP_pressure;BME280_temperature;BME280_humidity;BME280_pressure;Samples;Min_cycle;Max_cycle;Signal;HPM_P1;HPM_P2
2023/10/19 00:01:55;;;;;;;32.33;16.30;;;10.40;99.90;;;;;;5113299;27;20193;-80
2023/10/19 00:04:22;;;;;;;30.17;16.67;;;10.40;99.90;;;;;;5111789;28;20024;-79
2023/10/19 00:06:48;;;;;;;35.17;16.08;;;10.50;99.90;;;;;;5111177;28;20027;-79
2023/10/19 00:09:15;;;;;;;31.08;16.77;;;10.50;99.90;;;;;;5093727;28;20049;-80
2023/10/19 00:11:41;;;;;;;31.40;16.95;;;10.50;99.90;;;;;;5093006;28;20023;-80
2023/10/19 00:14:15;;;;;;;29.80;16.25;;;10.50;99.90;;;;;;5111743;28;20136;-79
2023/10/19 00:16:53;;;;;;;33.85;17.40;;;10.50;99.90;;;;;;5107070;28;20027;-81
2023/10/19 00:19:20;;;;;;;33.35;16.90;;;10.60;99.90;;;;;;5111709;28;20051;-77
2023/10/19 00:21:55;;;;;;;34.58;17.50;;;10.60;99.90;;;;;;5092270;28;20058;-80
2023/10/19 00:24:24;;;;;;;31.77;17.42;;;10.60;99.90;;;;;;5111261;28;20376;-80
2023/10/19 00:26:53;;;;;;;34.15;17.10;;;10.60;99.90;;;;;;5110843;28;20046;-78
2023/10/19 00:29:32;;;;;;;32.83;16.52;;;10.60;99.90;;;;;;5110936;28;20028;-78
2023/10/19 00:32:02;;;;;;;31.02;16.83;;;10.60;99.90;;;;;;5110537;28;20031;-80
2023/10/19 00:34:31;;;;;;;33.05;17.63;;;10.60;99.90;;;;;;5111129;28;20023;-80
2023/10/19 00:36:58;;;;;;;33.10;17.25;;;10.50;99.90;;;;;;5110454;28;20053;-80
2023/10/19 00:39:24;;;;;;;36.60;17.45;;;10.50;99.90;;;;;;5092693;28;20031;-80
2023/10/19 00:41:50;;;;;;;33.60;16.73;;;10.50;99.90;;;;;;5110218;28;20383;-81
2023/10/19 00:44:23;;;;;;;33.15;16.23;;;10.50;99.90;;;;;;5093227;28;20114;-80
2023/10/19 00:47:07;;;;;;;29.63;16.80;;;10.50;99.90;;;;;;5109930;28;20131;-80
2023/10/19 00:49:33;;;;;;;30.42;16.80;;;10.50;99.90;;;;;;5111024;28;20433;-80
2023/10/19 00:52:19;;;;;;;30.58;17.02;;;10.60;99.90;;;;;;5110157;28;20651;-81
2023/10/19 00:54:51;;;;;;;30.90;16.52;;;10.60;99.90;;;;;;5083564;28;20032;-80
2023/10/19 00:57:20;;;;;;;30.63;16.75;;;10.60;99.90;;;;;;5092090;28;20024;-80
2023/10/19 00:59:53;;;;;;;32.97;17.30;;;10.50;99.90;;;;;;5091366;28;20102;-80
2023/10/19 01:04:50;;;;;;;31.55;17.30;;;10.50;99.90;;;;;;5109774;28;20024;-81
2023/10/19 01:07:22;;;;;;;31.70;16.17;;;10.60;99.90;;;;;;5110798;28;20076;-82
2023/10/19 01:09:52;;;;;;;32.28;17.50;;;10.60;99.90;;;;;;5110139;28;20020;-83
2023/10/19 01:12:25;;;;;;;75.00;18.50;;;10.50;99.90;;;;;;5109973;28;20471;-78
2023/10/19 01:15:17;;;;;;;31.75;16.77;;;10.40;99.90;;;;;;5108113;28;20027;-80
2023/10/19 01:17:57;;;;;;;33.92;17.60;;;10.20;99.90;;;;;;5109807;28;20134;-80
2023/10/19 01:25:49;;;;;;;34.83;18.00;;;10.20;99.90;;;;;;5110102;28;20051;-79
2023/10/19 01:28:18;;;;;;;34.45;17.63;;;10.20;99.90;;;;;;5110201;28;20027;-80
2023/10/19 01:30:44;;;;;;;33.90;18.10;;;10.20;99.90;;;;;;5090830;28;20037;-79
2023/10/19 01:33:15;;;;;;;33.65;18.02;;;10.20;99.90;;;;;;5110290;28;20034;-80
2023/10/19 01:38:30;;;;;;;33.13;18.13;;;10.20;99.90;;;;;;5110673;28;20034;-80
2023/10/19 01:40:59;;;;;;;37.08;18.77;;;10.30;99.90;;;;;;5090534;28;20452;-80
2023/10/19 01:43:31;;;;;;;35.25;18.52;;;10.30;99.90;;;;;;5091216;28;20439;-79
2023/10/19 01:46:05;;;;;;;36.67;19.00;;;10.30;99.90;;;;;;5108644;28;20736;-81
2023/10/19 01:48:34;;;;;;;35.92;17.52;;;10.20;99.90;;;;;;5110266;28;20019;-80
2023/10/19 01:51:06;;;;;;;35.13;18.23;;;10.30;99.90;;;;;;5109035;28;20031;-80
2023/10/19 01:53:36;;;;;;;38.10;19.48;;;10.30;99.90;;;;;;5110247;28;20202;-80
2023/10/19 01:56:09;;;;;;;34.30;18.08;;;10.30;99.90;;;;;;5108371;28;20072;-81
2023/10/19 01:58:36;;;;;;;32.78;18.25;;;10.30;99.90;;;;;;5109905;27;20526;-79
2023/10/19 02:01:15;;;;;;;36.80;19.40;;;10.30;99.90;;;;;;5127457;27;20035;-81
2023/10/19 02:03:44;;;;;;;34.78;18.63;;;10.30;99.90;;;;;;5111722;27;20031;-79
2023/10/19 02:06:18;;;;;;;35.60;17.90;;;10.40;99.90;;;;;;5109245;28;20038;-80
2023/10/19 02:08:56;;;;;;;35.95;18.77;;;10.40;99.90;;;;;;5090660;28;20036;-79
2023/10/19 02:11:23;;;;;;;35.78;18.30;;;10.50;99.90;;;;;;5109211;28;20027;-79
2023/10/19 02:13:50;;;;;;;34.75;18.10;;;10.50;99.90;;;;;;5090358;28;20032;-79
2023/10/19 02:16:22;;;;;;;34.75;18.75;;;10.60;99.90;;;;;;5109612;28;20016;-79
2023/10/19 02:18:51;;;;;;;35.30;19.33;;;10.50;99.90;;;;;;5108118;28;20115;-78
2023/10/19 02:21:27;;;;;;;35.05;18.17;;;10.50;99.90;;;;;;5109284;28;20023;-80
2023/10/19 02:23:53;;;;;;;34.47;17.83;;;10.40;99.90;;;;;;5124572;27;20031;-80
2023/10/19 02:26:22;;;;;;;34.78;18.92;;;10.40;99.90;;;;;;5109482;28;20024;-80
2023/10/19 02:28:50;;;;;;;35.75;18.63;;;10.40;99.90;;;;;;5107957;28;20146;-79
2023/10/19 02:31:21;;;;;;;35.30;17.70;;;10.40;99.90;;;;;;5108551;28;20030;-79
2023/10/19 02:34:00;;;;;;;32.40;17.75;;;10.40;99.90;;;;;;5090258;28;20108;-79
2023/10/19 02:36:31;;;;;;;34.90;18.20;;;10.50;99.90;;;;;;5109605;28;20071;-79
2023/10/19 02:39:07;;;;;;;33.78;17.38;;;10.50;99.90;;;;;;5108112;28;20023;-79
2023/10/19 02:41:41;;;;;;;62.67;19.92;;;10.60;99.90;;;;;;5108535;28;20035;-79
2023/10/19 02:46:45;;;;;;;33.40;18.25;;;10.50;99.90;;;;;;5108992;28;20115;-80
2023/10/19 02:49:18;;;;;;;34.97;18.23;;;10.50;99.90;;;;;;5108409;28;20114;-80
2023/10/19 02:51:44;;;;;;;37.92;18.85;;;10.40;99.90;;;;;;5108654;28;20023;-77
2023/10/19 02:54:22;;;;;;;40.13;19.50;;;10.40;99.90;;;;;;5090169;28;20024;-80
2023/10/19 02:56:53;;;;;;;40.13;19.15;;;10.40;99.90;;;;;;5108397;28;20034;-80
2023/10/19 02:59:24;;;;;;;31.30;16.85;;;10.40;99.90;;;;;;5108770;28;20035;-80
2023/10/19 03:01:51;;;;;;;34.35;17.17;;;10.40;99.90;;;;;;5107932;28;20079;-79
2023/10/19 03:04:17;;;;;;;34.22;17.70;;;10.40;99.90;;;;;;5109235;28;20110;-80
2023/10/19 03:06:43;;;;;;;36.30;18.40;;;10.50;99.90;;;;;;5124464;28;20110;-80
2023/10/19 03:09:22;;;;;;;35.95;17.92;;;10.60;99.90;;;;;;5107767;28;20026;-79
2023/10/19 03:11:53;;;;;;;35.55;17.70;;;10.60;99.90;;;;;;5102666;28;20019;-77
2023/10/19 03:14:19;;;;;;;36.55;19.00;;;10.50;99.90;;;;;;5103493;28;20018;-78
2023/10/19 03:16:45;;;;;;;36.40;18.65;;;10.50;99.90;;;;;;5108370;28;20054;-77
2023/10/19 03:19:12;;;;;;;38.78;19.33;;;10.40;99.90;;;;;;5101140;28;20058;-79
2023/10/19 03:21:42;;;;;;;37.53;18.60;;;10.40;99.90;;;;;;5109805;28;20028;-80
2023/10/19 03:24:12;;;;;;;32.87;17.67;;;10.40;99.90;;;;;;5112048;28;20116;-79
2023/10/19 03:26:43;;;;;;;34.85;18.27;;;10.40;99.90;;;;;;5093802;28;20055;-79
2023/10/19 03:29:12;;;;;;;;;;;10.50;99.90;;;;;;5111968;28;20127;-80
2023/10/19 03:31:44;;;;;;;32.40;17.13;;;10.50;99.90;;;;;;5112605;28;19908;-77
2023/10/19 03:34:16;;;;;;;35.63;17.08;;;10.50;99.90;;;;;;5111472;28;20089;-80
2023/10/19 03:36:42;;;;;;;31.02;16.90;;;10.50;99.90;;;;;;5094222;28;20020;-79
2023/10/19 03:39:14;;;;;;;32.17;17.90;;;10.50;99.90;;;;;;5109323;28;20124;-78
2023/10/19 03:41:44;;;;;;;33.88;18.08;;;10.50;99.90;;;;;;5111186;28;20027;-79
2023/10/19 03:44:24;;;;;;;39.00;18.00;;;10.60;99.90;;;;;;5104455;28;20043;-78
2023/10/19 03:46:56;;;;;;;33.50;18.08;;;10.60;99.90;;;;;;5112109;28;20034;-78
2023/10/19 03:49:22;;;;;;;32.28;17.33;;;10.50;99.90;;;;;;5112492;28;20027;-80
2023/10/19 03:52:20;;;;;;;36.13;18.23;;;10.50;99.90;;;;;;5112269;28;20089;-77
2023/10/19 03:54:47;;;;;;;31.75;17.60;;;10.40;99.90;;;;;;5093543;28;20049;-79
2023/10/19 03:57:25;;;;;;;33.30;17.23;;;10.30;99.90;;;;;;5126680;27;20439;-73
2023/10/19 04:00:00;;;;;;;39.50;18.73;;;10.30;99.90;;;;;;5111565;28;20058;-76
2023/10/19 04:02:35;;;;;;;31.63;17.50;;;10.30;99.90;;;;;;5100395;27;20040;-77
2023/10/19 04:05:02;;;;;;;32.22;17.45;;;10.20;99.90;;;;;;5094751;28;20155;-77
2023/10/19 04:07:31;;;;;;;36.58;18.63;;;10.20;99.90;;;;;;5111556;28;20024;-77
2023/10/19 04:09:58;;;;;;;36.20;17.95;;;10.20;99.90;;;;;;5095162;27;20019;-76
2023/10/19 04:12:25;;;;;;;34.92;18.67;;;10.10;99.90;;;;;;5097220;27;20080;-76
2023/10/19 04:14:51;;;;;;;30.90;17.40;;;10.10;99.90;;;;;;5117163;27;20017;-76
2023/10/19 04:17:20;;;;;;;31.85;17.48;;;10.10;99.90;;;;;;5110620;28;20043;-76
2023/10/19 04:19:48;;;;;;;35.45;18.13;;;10.00;99.90;;;;;;5093655;28;20023;-77
2023/10/19 04:22:22;;;;;;;34.08;17.98;;;10.00;99.90;;;;;;5110928;28;20520;-75
2023/10/19 04:24:48;;;;;;;33.10;17.50;;;9.90;99.90;;;;;;5093252;28;20027;-75
2023/10/19 04:27:14;;;;;;;33.53;17.50;;;9.90;99.90;;;;;;5110571;28;20019;-75
2023/10/19 04:29:43;;;;;;;30.20;17.17;;;9.90;99.90;;;;;;5110995;28;20474;-77
2023/10/19 04:32:14;;;;;;;30.88;16.23;;;9.90;99.90;;;;;;5109055;28;20110;-75
2023/10/19 04:34:40;;;;;;;33.63;17.85;;;9.90;99.90;;;;;;5111741;28;20028;-74
2023/10/19 04:37:06;;;;;;;34.08;17.33;;;9.80;99.90;;;;;;5110863;28;20523;-74
2023/10/19 04:39:34;;;;;;;31.35;17.05;;;9.80;99.90;;;;;;5110868;28;20011;-74
2023/10/19 04:42:00;;;;;;;29.95;16.52;;;9.80;99.90;;;;;;5124786;27;20028;-73
2023/10/19 04:44:25;;;;;;;31.08;17.48;;;9.80;99.90;;;;;;5111107;28;20050;-74
2023/10/19 04:46:51;;;;;;;30.45;16.48;;;9.70;99.90;;;;;;5110756;28;20099;-76
2023/10/19 04:49:16;;;;;;;31.55;16.33;;;9.70;99.90;;;;;;5111261;28;20055;-78
2023/10/19 04:51:43;;;;;;;30.52;16.52;;;9.70;99.90;;;;;;5111142;28;20349;-79
2023/10/19 04:54:09;;;;;;;39.20;19.27;;;9.70;99.90;;;;;;5110173;28;20031;-79
2023/10/19 04:56:38;;;;;;;51.30;20.55;;;9.70;99.90;;;;;;5106154;28;20024;-75
2023/10/19 04:59:04;;;;;;;43.97;22.20;;;9.60;99.90;;;;;;5109334;28;20023;-75
2023/10/19 05:01:33;;;;;;;37.28;20.65;;;9.60;99.90;;;;;;5092469;28;20175;-78
2023/10/19 05:04:00;;;;;;;43.47;19.63;;;9.60;99.90;;;;;;5109147;28;20035;-76
2023/10/19 05:06:25;;;;;;;36.75;19.17;;;9.60;99.90;;;;;;5110003;28;20028;-75
2023/10/19 05:08:52;;;;;;;42.72;21.70;;;9.50;99.90;;;;;;5092269;28;20073;-74
2023/10/19 05:11:18;;;;;;;59.05;22.33;;;9.50;99.90;;;;;;5108685;28;20079;-74
2023/10/19 05:13:43;;;;;;;60.35;24.30;;;9.50;99.90;;;;;;5110870;28;20027;-76
2023/10/19 05:16:09;;;;;;;51.13;25.90;;;9.50;99.90;;;;;;5090062;28;20398;-75
2023/10/19 05:18:35;;;;;;;48.67;24.20;;;9.40;99.90;;;;;;5109970;28;20048;-74
2023/10/19 05:21:00;;;;;;;39.88;21.10;;;9.30;99.90;;;;;;5100294;28;20020;-76
2023/10/19 05:23:27;;;;;;;38.85;20.50;;;9.30;99.90;;;;;;5110583;28;20030;-76
2023/10/19 05:25:59;;;;;;;38.08;20.23;;;9.30;99.90;;;;;;5106383;28;20016;-73
2023/10/19 05:28:25;;;;;;;154.27;22.88;;;9.30;99.90;;;;;;5110447;28;20039;-74
2023/10/19 05:30:51;;;;;;;35.13;18.08;;;9.20;99.90;;;;;;5109163;28;20375;-74
2023/10/19 05:33:20;;;;;;;54.83;22.23;;;9.20;99.90;;;;;;5109546;28;20027;-76
2023/10/19 05:35:47;;;;;;;50.28;20.38;;;9.20;99.90;;;;;;5117407;27;20364;-76
2023/10/19 05:38:13;;;;;;;34.38;17.73;;;9.10;99.90;;;;;;5104864;28;20490;-74
2023/10/19 05:40:38;;;;;;;29.80;16.00;;;9.10;99.90;;;;;;5087567;28;20028;-79
2023/10/19 05:43:05;;;;;;;29.08;14.93;;;9.10;99.90;;;;;;5097100;28;20107;-79
2023/10/19 05:45:32;;;;;;;28.48;15.52;;;9.00;99.90;;;;;;5105717;28;20015;-74
2023/10/19 05:47:57;;;;;;;25.95;14.18;;;9.00;99.90;;;;;;5124574;27;20050;-81
2023/10/19 05:50:24;;;;;;;26.25;14.10;;;9.10;99.90;;;;;;5104117;28;20047;-78
2023/10/19 05:52:51;;;;;;;29.65;16.05;;;9.00;99.90;;;;;;5091429;28;20023;-75
2023/10/19 05:55:17;;;;;;;57.25;25.88;;;9.10;99.90;;;;;;5085478;28;20035;-75
2023/10/19 05:57:44;;;;;;;48.67;23.50;;;9.10;99.90;;;;;;5107295;27;20027;-75
2023/10/19 06:00:12;;;;;;;65.55;24.73;;;9.10;99.90;;;;;;5107895;28;20028;-74
2023/10/19 06:02:39;;;;;;;39.83;20.20;;;9.10;99.90;;;;;;5091001;28;20460;-74
2023/10/19 06:05:06;;;;;;;40.28;20.50;;;9.10;99.90;;;;;;5107683;28;20052;-76
2023/10/19 06:07:32;;;;;;;44.25;19.52;;;9.20;99.90;;;;;;5109870;28;20077;-74
2023/10/19 06:10:00;;;;;;;120.13;19.15;;;9.20;99.90;;;;;;5107128;28;20020;-74
2023/10/19 06:12:26;;;;;;;118.05;17.65;;;9.10;99.90;;;;;;5109605;28;20020;-74
2023/10/19 06:14:51;;;;;;;47.65;17.38;;;9.10;99.90;;;;;;5107992;28;20456;-73
2023/10/19 06:17:19;;;;;;;41.03;16.58;;;9.10;99.90;;;;;;5102515;28;20702;-75
2023/10/19 06:19:45;;;;;;;43.78;16.27;;;9.10;99.90;;;;;;5088870;28;20031;-74
2023/10/19 06:22:12;;;;;;;38.92;17.50;;;9.10;99.90;;;;;;5087199;28;20313;-78
2023/10/19 06:24:38;;;;;;;28.02;15.15;;;9.10;99.90;;;;;;5088828;28;20044;-78
2023/10/19 06:27:04;;;;;;;27.45;15.70;;;9.10;99.90;;;;;;5088130;28;20050;-81
2023/10/19 06:29:30;;;;;;;30.30;15.95;;;9.10;99.90;;;;;;5089034;28;20028;-79
2023/10/19 06:31:55;;;;;;;28.88;16.15;;;9.20;99.90;;;;;;5088756;28;20028;-78
2023/10/19 06:34:21;;;;;;;28.25;16.08;;;9.20;99.90;;;;;;5088715;28;20103;-78
2023/10/19 06:36:47;;;;;;;34.58;17.50;;;9.30;99.90;;;;;;5089238;28;20399;-82
2023/10/19 06:39:13;;;;;;;30.27;16.00;;;9.30;99.90;;;;;;5088216;28;20035;-80
2023/10/19 06:41:39;;;;;;;43.63;15.38;;;9.30;99.90;;;;;;5102872;28;20032;-75
2023/10/19 06:44:05;;;;;;;30.98;16.73;;;9.30;99.90;;;;;;5087544;28;20024;-74
2023/10/19 06:46:31;;;;;;;32.55;17.02;;;9.40;99.90;;;;;;5088965;28;20022;-76
2023/10/19 06:49:00;;;;;;;34.20;16.75;;;9.40;99.90;;;;;;5088117;28;20031;-79
2023/10/19 06:51:26;;;;;;;28.80;16.08;;;9.40;99.90;;;;;;5088057;28;20410;-79
2023/10/19 06:53:52;;;;;;;35.45;18.05;;;9.40;99.90;;;;;;5088188;28;20351;-75
2023/10/19 06:56:18;;;;;;;37.22;19.38;;;9.50;99.90;;;;;;5087069;28;20020;-76
2023/10/19 06:58:44;;;;;;;43.15;21.10;;;9.50;99.90;;;;;;5088866;28;20410;-77
2023/10/19 07:01:10;;;;;;;37.78;19.60;;;9.70;99.90;;;;;;5087269;28;20036;-79
2023/10/19 07:03:36;;;;;;;38.00;19.30;;;9.90;99.90;;;;;;5087979;28;20394;-76
2023/10/19 07:06:02;;;;;;;39.30;20.33;;;10.00;99.90;;;;;;5087599;28;20028;-76
2023/10/19 07:08:28;;;;;;;38.35;19.80;;;10.10;99.90;;;;;;5088786;28;20024;-76
2023/10/19 07:10:54;;;;;;;36.00;18.90;;;10.20;99.90;;;;;;5088278;28;20030;-76
2023/10/19 07:13:20;;;;;;;64.50;19.08;;;10.30;99.90;;;;;;5087723;28;20469;-76
2023/10/19 07:15:49;;;;;;;42.67;17.73;;;10.40;99.90;;;;;;5088624;28;20012;-77
2023/10/19 07:18:15;;;;;;;32.47;17.70;;;10.20;99.90;;;;;;5100139;28;20066;-79
2023/10/19 07:20:42;;;;;;;29.92;15.85;;;10.20;99.90;;;;;;5108960;28;20456;-76
2023/10/19 07:23:26;;;;;;;33.60;17.80;;;10.20;99.90;;;;;;5108205;28;20027;-76
2023/10/19 07:25:54;;;;;;;35.50;18.08;;;10.20;99.90;;;;;;5097364;28;20008;-75
2023/10/19 07:28:21;;;;;;;33.08;17.60;;;10.30;99.90;;;;;;5108206;28;20028;-80
2023/10/19 07:30:47;;;;;;;35.17;18.08;;;10.30;99.90;;;;;;5108756;28;20024;-74
2023/10/19 07:33:19;;;;;;;34.13;18.33;;;10.40;99.90;;;;;;5108066;28;20685;-73
2023/10/19 07:35:54;;;;;;;34.80;17.92;;;10.40;99.90;;;;;;5108700;28;20383;-75
2023/10/19 07:38:22;;;;;;;38.70;18.92;;;10.40;99.90;;;;;;5107676;28;20645;-75
2023/10/19 07:40:48;;;;;;;39.83;19.95;;;10.50;99.90;;;;;;5108666;28;20028;-74
2023/10/19 07:43:14;;;;;;;52.85;24.45;;;10.60;99.90;;;;;;5108046;28;20072;-75
2023/10/19 07:45:39;;;;;;;40.97;19.65;;;10.70;99.90;;;;;;5108477;28;20153;-74
2023/10/19 07:48:10;;;;;;;39.38;20.15;;;10.80;99.90;;;;;;5088997;28;20020;-76
2023/10/19 07:50:37;;;;;;;;;;;10.70;99.90;;;;;;5109440;28;20080;-78
2023/10/19 07:53:03;;;;;;;28.88;16.52;;;10.60;99.90;;;;;;5089699;28;19899;-77
2023/10/19 07:55:31;;;;;;;44.42;20.73;;;10.50;99.90;;;;;;5125107;28;20051;-76
2023/10/19 07:57:59;;;;;;;56.92;23.40;;;10.50;99.90;;;;;;5110912;28;20095;-75
2023/10/19 08:00:26;;;;;;;51.10;23.17;;;10.60;99.90;;;;;;5106696;28;20460;-77
2023/10/19 08:02:55;;;;;;;39.35;20.20;;;10.70;99.90;;;;;;5108614;28;20096;-75
2023/10/19 08:05:21;;;;;;;38.03;20.75;;;10.70;99.90;;;;;;5107164;28;20636;-76
2023/10/19 08:07:47;;;;;;;41.92;20.40;;;10.70;99.90;;;;;;5126565;27;20462;-75
2023/10/19 08:10:16;;;;;;;39.45;20.42;;;10.60;99.90;;;;;;5111305;28;20039;-76
2023/10/19 08:12:42;;;;;;;39.42;21.48;;;10.70;99.90;;;;;;5111694;28;20083;-79
2023/10/19 08:15:12;;;;;;;49.45;22.75;;;10.70;99.90;;;;;;5110799;28;20023;-73
2023/10/19 08:17:41;;;;;;;52.00;27.48;;;10.70;99.90;;;;;;5111213;28;20466;-77
2023/10/19 08:20:10;;;;;;;42.42;21.83;;;10.80;99.90;;;;;;5110590;28;20020;-78
2023/10/19 08:22:39;;;;;;;38.85;20.00;;;10.90;99.90;;;;;;5077457;28;20027;-78
2023/10/19 08:25:11;;;;;;;42.70;24.60;;;11.00;99.90;;;;;;5092849;28;20019;-74
2023/10/19 08:27:44;;;;;;;45.22;25.38;;;11.10;99.90;;;;;;5111275;28;20016;-77
2023/10/19 08:30:12;;;;;;;45.90;25.35;;;11.20;99.90;;;;;;5110302;28;20031;-77
2023/10/19 08:32:39;;;;;;;54.30;28.17;;;11.40;99.90;;;;;;5111203;28;20016;-77
2023/10/19 08:35:05;;;;;;;37.80;20.55;;;11.40;99.90;;;;;;5111230;28;20027;-77
2023/10/19 08:37:31;;;;;;;32.22;18.45;;;11.40;99.90;;;;;;5093041;28;20080;-78
2023/10/19 08:39:57;;;;;;;34.95;19.13;;;11.50;99.90;;;;;;5111487;28;20019;-78
2023/10/19 08:42:24;;;;;;;36.50;20.88;;;11.60;99.90;;;;;;5110356;28;20028;-75
2023/10/19 08:44:50;;;;;;;35.60;20.92;;;11.70;99.90;;;;;;5110755;28;20027;-74
2023/10/19 08:47:15;;;;;;;36.13;20.40;;;11.80;99.90;;;;;;5110249;28;20041;-76
2023/10/19 08:49:42;;;;;;;36.85;21.10;;;11.80;99.90;;;;;;5111173;28;20470;-76
2023/10/19 08:52:09;;;;;;;36.85;20.50;;;11.80;99.90;;;;;;5110619;28;20030;-77
2023/10/19 08:54:35;;;;;;;34.50;19.48;;;11.90;99.90;;;;;;5111167;28;20112;-76
2023/10/19 08:57:01;;;;;;;38.10;21.73;;;12.00;99.90;;;;;;5110772;28;20024;-77
2023/10/19 08:59:27;;;;;;;43.97;24.58;;;12.10;99.90;;;;;;5110327;28;20028;-76
2023/10/19 09:02:02;;;;;;;42.50;25.13;;;12.20;99.90;;;;;;5110806;28;20015;-77
2023/10/19 09:04:30;;;;;;;39.20;22.35;;;12.30;99.90;;;;;;5110402;28;20032;-76
2023/10/19 09:06:55;;;;;;;37.17;19.67;;;12.40;99.90;;;;;;5110960;28;20020;-77
2023/10/19 09:09:25;;;;;;;35.40;20.33;;;12.50;99.90;;;;;;5110323;28;20033;-76
2023/10/19 09:11:52;;;;;;;37.92;21.30;;;12.60;99.90;;;;;;5110601;28;20376;-78
2023/10/19 09:14:36;;;;;;;44.10;23.65;;;12.60;99.90;;;;;;5091724;28;20096;-77
2023/10/19 09:17:03;;;;;;;43.00;24.10;;;12.70;99.90;;;;;;5091884;28;20485;-77
2023/10/19 09:19:41;;;;;;;44.22;22.88;;;12.80;99.90;;;;;;5108701;28;20046;-77
2023/10/19 09:22:08;;;;;;;48.65;24.08;;;12.80;99.90;;;;;;5110030;28;20034;-75
2023/10/19 09:24:35;;;;;;;41.97;23.33;;;12.90;99.90;;;;;;5110290;28;20067;-76
2023/10/19 09:27:03;;;;;;;48.50;22.42;;;12.90;99.90;;;;;;5110108;28;20356;-75
2023/10/19 09:29:29;;;;;;;39.10;21.95;;;13.00;99.90;;;;;;5109960;28;20028;-75
2023/10/19 09:31:58;;;;;;;34.65;19.88;;;13.10;99.90;;;;;;5109794;28;20031;-76
2023/10/19 09:34:31;;;;;;;36.25;19.80;;;13.30;99.90;;;;;;5109015;28;20038;-76
2023/10/19 09:37:00;;;;;;;34.10;18.90;;;13.50;99.90;;;;;;5110032;28;20022;-78
2023/10/19 09:39:35;;;;;;;38.13;21.35;;;13.70;99.90;;;;;;5108749;28;20028;-77
2023/10/19 09:42:16;;;;;;;36.10;19.92;;;13.90;99.90;;;;;;5109985;28;20114;-79
2023/10/19 09:44:44;;;;;;;65.93;33.35;;;14.10;99.90;;;;;;5107090;28;20387;-72
2023/10/19 09:47:12;;;;;;;32.35;19.08;;;14.30;99.90;;;;;;5124607;27;20050;-72
2023/10/19 09:49:45;;;;;;;30.05;17.02;;;14.40;99.90;;;;;;5109490;28;20039;-73
2023/10/19 09:52:13;;;;;;;28.88;16.63;;;14.60;99.90;;;;;;5108362;28;20102;-74
2023/10/19 09:54:56;;;;;;;31.88;17.58;;;14.70;99.90;;;;;;5108681;28;20111;-76
2023/10/19 09:57:36;;;;;;;28.15;16.02;;;14.80;99.90;;;;;;5112380;27;20072;-76
2023/10/19 10:00:09;;;;;;;31.13;16.27;;;15.00;99.90;;;;;;5108740;28;20020;-75
2023/10/19 10:02:35;;;;;;;27.48;14.90;;;15.20;99.90;;;;;;5103296;28;20112;-75
2023/10/19 10:05:01;;;;;;;30.05;15.48;;;15.40;99.90;;;;;;5108827;28;20046;-76
2023/10/19 10:07:27;;;;;;;27.75;16.42;;;15.40;99.90;;;;;;5085978;28;20209;-75
2023/10/19 10:09:54;;;;;;;26.85;16.13;;;15.50;99.90;;;;;;5104985;28;20482;-76
2023/10/19 10:12:25;;;;;;;24.80;15.27;;;15.50;99.90;;;;;;5106429;28;20031;-75
2023/10/19 10:15:03;;;;;;;28.23;16.73;;;15.50;99.90;;;;;;5090092;28;20391;-76
2023/10/19 10:17:28;;;;;;;28.77;17.40;;;15.60;99.90;;;;;;5102168;27;20070;-76
2023/10/19 10:20:13;;;;;;;28.15;16.25;;;15.60;99.90;;;;;;5107423;28;20542;-80
2023/10/19 10:22:39;;;;;;;32.13;17.52;;;15.70;99.90;;;;;;5106744;28;20103;-77
2023/10/19 10:25:06;;;;;;;29.35;17.02;;;15.70;99.90;;;;;;5108771;28;20158;-76
2023/10/19 10:27:36;;;;;;;27.83;17.52;;;15.70;99.90;;;;;;5108815;28;20023;-80
2023/10/19 10:30:06;;;;;;;36.50;19.70;;;15.70;99.90;;;;;;5109030;28;20027;-79
2023/10/19 10:32:45;;;;;;;;;;;15.80;99.90;;;;;;5107809;28;20030;-81
2023/10/19 10:35:36;;;;;;;27.75;16.55;;;15.70;99.90;;;;;;5108310;28;20271;-78
2023/10/19 10:38:06;;;;;;;29.42;17.27;;;15.60;99.90;;;;;;5103951;28;20020;-79
2023/10/19 10:40:45;;;;;;;33.53;18.40;;;15.60;99.90;;;;;;5108555;28;20076;-79
2023/10/19 10:43:12;;;;;;;31.27;17.95;;;15.50;99.90;;;;;;5107599;28;20023;-81
2023/10/19 10:45:37;;;;;;;32.10;19.42;;;15.50;99.90;;;;;;5106068;28;20106;-82
2023/10/19 10:48:03;;;;;;;33.80;19.08;;;15.40;99.90;;;;;;5104862;28;20220;-81
2023/10/19 10:50:29;;;;;;;31.52;18.88;;;15.40;99.90;;;;;;5108056;28;20035;-79
2023/10/19 10:52:57;;;;;;;34.72;19.98;;;15.30;99.90;;;;;;5109673;28;20028;-84
2023/10/19 10:55:25;;;;;;;32.13;17.73;;;15.30;99.90;;;;;;5108236;28;20369;-81
2023/10/19 10:57:51;;;;;;;31.45;19.25;;;15.20;99.90;;;;;;5108525;28;20020;-81
2023/10/19 11:00:18;;;;;;;36.55;20.38;;;15.10;99.90;;;;;;5107089;28;20380;-76
2023/10/19 11:02:46;;;;;;;37.80;20.63;;;15.10;99.90;;;;;;5107904;28;20028;-80
2023/10/19 11:05:13;;;;;;;35.72;20.33;;;15.10;99.90;;;;;;5108351;28;20035;-77
2023/10/19 11:07:40;;;;;;;37.90;21.42;;;15.10;99.90;;;;;;5108784;28;20502;-80
2023/10/19 11:10:06;;;;;;;39.22;22.30;;;15.20;99.90;;;;;;5109048;28;20463;-81
2023/10/19 11:12:32;;;;;;;42.85;24.02;;;15.20;99.90;;;;;;5107839;28;20750;-80
2023/10/19 11:14:59;;;;;;;42.60;23.27;;;15.20;99.90;;;;;;5108501;28;20031;-80
2023/10/19 11:17:31;;;;;;;37.15;20.88;;;15.30;99.90;;;;;;5107210;28;20055;-80
2023/10/19 11:19:58;;;;;;;35.13;21.38;;;15.30;99.90;;;;;;5108420;28;20395;-75
2023/10/19 11:22:27;;;;;;;34.95;20.77;;;15.40;99.90;;;;;;5107926;28;20556;-78
2023/10/19 11:24:54;;;;;;;36.45;19.52;;;15.50;99.90;;;;;;5108466;28;20032;-81
2023/10/19 11:27:26;;;;;;;31.52;17.95;;;15.50;99.90;;;;;;5108214;28;20039;-77
2023/10/19 11:29:56;;;;;;;28.55;17.58;;;15.50;99.90;;;;;;5108733;28;20027;-79
2023/10/19 11:32:25;;;;;;;27.05;15.88;;;15.60;99.90;;;;;;5089580;28;20119;-78
2023/10/19 11:34:51;;;;;;;28.60;16.45;;;15.70;99.90;;;;;;5106533;28;20024;-80
2023/10/19 11:37:17;;;;;;;26.20;14.85;;;15.70;99.90;;;;;;5107915;28;20036;-83
2023/10/19 11:39:43;;;;;;;24.65;14.15;;;15.90;99.90;;;;;;5108274;28;20403;-80
2023/10/19 11:42:10;;;;;;;32.88;18.27;;;15.90;99.90;;;;;;5109379;28;20042;-77
2023/10/19 11:44:36;;;;;;;34.67;18.25;;;15.90;99.90;;;;;;5111450;28;20288;-78
2023/10/19 11:47:03;;;;;;;30.60;17.67;;;15.90;99.90;;;;;;5111324;28;20020;-78
2023/10/19 11:49:29;;;;;;;33.03;17.75;;;15.80;99.90;;;;;;5110779;28;20118;-76
2023/10/19 11:51:54;;;;;;;30.70;18.48;;;15.80;99.90;;;;;;5114176;27;20806;-78
2023/10/19 11:54:20;;;;;;;33.35;18.13;;;15.70;99.90;;;;;;5123639;27;20059;-80
2023/10/19 11:56:46;;;;;;;27.83;17.58;;;15.70;99.90;;;;;;5111122;28;20026;-80
2023/10/19 11:59:12;;;;;;;28.58;18.60;;;15.70;99.90;;;;;;5109503;28;20034;-81
2023/10/19 12:01:38;;;;;;;34.13;19.10;;;15.60;99.90;;;;;;5110821;28;20042;-77
2023/10/19 12:04:05;;;;;;;32.05;18.05;;;15.60;99.90;;;;;;5111316;28;20046;-78
2023/10/19 12:06:31;;;;;;;29.40;17.88;;;15.50;99.90;;;;;;5111139;28;20043;-78
2023/10/19 12:08:59;;;;;;;30.67;18.33;;;15.50;99.90;;;;;;5112453;28;20055;-78
2023/10/19 12:11:25;;;;;;;31.77;18.23;;;15.50;99.90;;;;;;5111029;28;20048;-81
2023/10/19 12:13:50;;;;;;;34.05;18.83;;;15.40;99.90;;;;;;5112025;28;20032;-81
2023/10/19 12:16:16;;;;;;;33.97;17.73;;;15.40;99.90;;;;;;5126839;27;20090;-77
2023/10/19 12:18:48;;;;;;;33.10;18.70;;;15.40;99.90;;;;;;5092468;28;20101;-78
2023/10/19 12:21:14;;;;;;;27.95;17.02;;;15.40;99.90;;;;;;5110341;28;20812;-77
2023/10/19 12:23:41;;;;;;;32.78;19.55;;;15.50;99.90;;;;;;5110998;28;20208;-80
2023/10/19 12:26:10;;;;;;;37.38;19.55;;;15.50;99.90;;;;;;5111936;28;20050;-82
2023/10/19 12:28:38;;;;;;;30.73;19.05;;;15.60;99.90;;;;;;5110846;28;20032;-81
2023/10/19 12:31:05;;;;;;;35.15;18.67;;;15.60;99.90;;;;;;5111917;28;20811;-81
2023/10/19 12:33:31;;;;;;;31.83;17.20;;;15.60;99.90;;;;;;5110896;28;20019;-80
2023/10/19 12:35:57;;;;;;;25.85;15.35;;;15.60;99.90;;;;;;5111653;28;20114;-82
2023/10/19 12:38:23;;;;;;;30.58;17.08;;;15.60;99.90;;;;;;5110435;28;20080;-82
2023/10/19 12:40:54;;;;;;;36.55;21.30;;;15.60;99.90;;;;;;5111306;28;20036;-80
2023/10/19 12:43:22;;;;;;;;;;;15.60;99.90;;;;;;5110556;28;20112;-77
2023/10/19 12:45:53;;;;;;;38.28;20.98;;;15.50;99.90;;;;;;5111593;28;19904;-81
2023/10/19 12:48:19;;;;;;;41.20;23.35;;;15.50;99.90;;;;;;5110084;28;20078;-77
2023/10/19 12:50:45;;;;;;;36.35;20.50;;;15.50;99.90;;;;;;5110935;28;20097;-80
2023/10/19 12:53:11;;;;;;;33.38;19.67;;;15.50;99.90;;;;;;5110019;28;20095;-81